Time;durP1;ratioP1;P1;durP2;ratioP2;P2;SDS_P1;SDS_P2;PMS_P1;PMS_P2;Temp;Humidity;BMP_temperature;BMP_pressure;BME280_temperature;BME280_humidity;BME280_pressure;Samples;Min_cycle;Max_cycle;Signal;HPM_P1;HPM_P2
2021/03/18 00:01:47;;;;;;;12.50;2.50;;;7.90;99.90;;;;;;5035391;28;20186;-75
2021/03/18 00:04:16;;;;;;;11.20;2.10;;;7.80;99.90;;;;;;5053211;28;20194;-74
2021/03/18 00:06:42;;;;;;;12.50;2.37;;;7.70;99.90;;;;;;5053271;28;20175;-75
2021/03/18 00:09:13;;;;;;;12.50;2.53;;;7.70;99.90;;;;;;5053216;28;20250;-75
2021/03/18 00:11:40;;;;;;;6.70;2.40;;;7.70;99.90;;;;;;5053222;28;20627;-74
2021/03/18 00:14:08;;;;;;;8.80;2.70;;;7.70;99.90;;;;;;5035536;28;20530;-75
2021/03/18 00:16:34;;;;;;;12.90;2.47;;;7.80;99.90;;;;;;5053532;28;20163;-75
2021/03/18 00:19:00;;;;;;;13.37;2.70;;;8.00;99.90;;;;;;5052799;28;20167;-75
2021/03/18 00:21:25;;;;;;;11.10;2.38;;;8.10;99.90;;;;;;5034978;28;20167;-75
2021/03/18 00:23:52;;;;;;;9.07;2.33;;;8.10;99.90;;;;;;5053116;28;20265;-75
2021/03/18 00:26:30;;;;;;;14.27;2.30;;;8.10;99.90;;;;;;5052814;28;20171;-75
2021/03/18 00:28:57;;;;;;;8.43;1.80;;;8.10;99.90;;;;;;5052846;28;20236;-75
2021/03/18 00:31:29;;;;;;;12.73;2.47;;;8.10;99.90;;;;;;5052943;28;20163;-75
2021/03/18 00:33:57;;;;;;;13.53;2.67;;;8.10;99.90;;;;;;5035204;28;20191;-74
2021/03/18 00:36:24;;;;;;;10.10;2.07;;;8.00;99.90;;;;;;5052837;28;20519;-75
2021/03/18 00:38:50;;;;;;;9.53;1.83;;;8.00;99.90;;;;;;5018880;28;20262;-75
2021/03/18 00:41:16;;;;;;;12.17;2.60;;;8.00;99.90;;;;;;5034674;28;20215;-75
2021/03/18 00:43:42;;;;;;;16.17;2.70;;;7.80;99.90;;;;;;5052800;28;20597;-75
2021/03/18 00:46:08;;;;;;;18.37;2.50;;;7.70;99.90;;;;;;5053101;28;20159;-75
2021/03/18 00:48:35;;;;;;;12.80;2.13;;;7.60;99.90;;;;;;5034769;28;20178;-75
2021/03/18 00:51:07;;;;;;;23.20;3.10;;;7.50;99.90;;;;;;5035566;28;20526;-75
2021/03/18 00:53:37;;;;;;;18.37;2.67;;;7.40;99.90;;;;;;5038550;28;20167;-75
2021/03/18 00:56:11;;;;;;;16.17;3.20;;;7.30;99.90;;;;;;5056460;28;20167;-75
2021/03/18 00:58:37;;;;;;;9.23;2.37;;;7.20;99.90;;;;;;5056531;28;20603;-75
2021/03/18 01:01:04;;;;;;;13.43;2.20;;;7.10;99.90;;;;;;5056510;28;20213;-75
2021/03/18 01:03:33;;;;;;;10.30;2.20;;;7.00;99.90;;;;;;5038604;28;20691;-75
2021/03/18 01:06:09;;;;;;;13.90;2.20;;;6.90;99.90;;;;;;5056345;28;20160;-75
2021/03/18 01:08:36;;;;;;;13.57;2.80;;;6.70;99.90;;;;;;5056277;28;20196;-75
2021/03/18 01:11:06;;;;;;;10.37;2.07;;;6.60;99.90;;;;;;5056468;28;20175;-75
2021/03/18 01:13:33;;;;;;;7.50;2.00;;;6.60;99.90;;;;;;5056149;28;20698;-75
2021/03/18 01:16:05;;;;;;;12.30;2.37;;;6.60;99.90;;;;;;5056294;28;20195;-75
2021/03/18 01:18:42;;;;;;;17.43;2.53;;;6.50;99.90;;;;;;5056171;28;20175;-75
2021/03/18 01:21:09;;;;;;;10.67;2.07;;;6.50;99.90;;;;;;5037738;28;20206;-75
2021/03/18 01:23:35;;;;;;;13.77;2.20;;;6.40;99.90;;;;;;5038192;28;20175;-75
2021/03/18 01:26:02;;;;;;;11.00;2.07;;;6.40;99.90;;;;;;5056111;28;20219;-75
2021/03/18 01:28:29;;;;;;;6.67;2.03;;;6.30;99.90;;;;;;5055946;28;20187;-75
2021/03/18 01:30:56;;;;;;;7.80;2.00;;;6.30;99.90;;;;;;5038026;28;20176;-75
2021/03/18 01:33:21;;;;;;;8.53;2.50;;;6.20;99.90;;;;;;5038061;28;20566;-75
2021/03/18 01:35:48;;;;;;;12.83;2.47;;;6.10;99.90;;;;;;5038382;28;20205;-75
2021/03/18 01:38:13;;;;;;;10.37;2.60;;;6.10;99.90;;;;;;5038065;28;20619;-75
2021/03/18 01:40:40;;;;;;;9.07;2.83;;;6.10;99.90;;;;;;5055672;28;20209;-75
2021/03/18 01:43:06;;;;;;;9.93;3.03;;;6.10;99.90;;;;;;5037415;28;20676;-75
2021/03/18 01:45:32;;;;;;;10.30;2.23;;;6.10;99.90;;;;;;5037765;28;20172;-74
2021/03/18 01:47:57;;;;;;;11.20;2.60;;;6.10;99.90;;;;;;5055456;28;20163;-75
2021/03/18 01:50:26;;;;;;;14.70;3.13;;;6.20;99.90;;;;;;5055620;28;20262;-76
2021/03/18 01:52:53;;;;;;;10.40;2.93;;;6.10;99.90;;;;;;5055341;28;20222;-75
2021/03/18 01:55:32;;;;;;;13.10;2.70;;;6.10;99.90;;;;;;5055259;28;20611;-74
2021/03/18 01:57:58;;;;;;;14.20;3.30;;;6.00;99.90;;;;;;5055585;28;20170;-74
2021/03/18 02:00:26;;;;;;;13.37;3.13;;;6.10;99.90;;;;;;5037332;28;20199;-75
2021/03/18 02:02:52;;;;;;;6.20;2.73;;;6.10;99.90;;;;;;5036527;28;20171;-75
2021/03/18 02:05:18;;;;;;;12.27;3.03;;;6.10;99.90;;;;;;5055799;28;20168;-74
2021/03/18 02:07:44;;;;;;;8.77;3.10;;;6.10;99.90;;;;;;5055489;28;20168;-75
2021/03/18 02:10:10;;;;;;;11.60;2.83;;;6.00;99.90;;;;;;5055138;28;20190;-74
2021/03/18 02:12:36;;;;;;;14.97;3.60;;;6.00;99.90;;;;;;5055203;28;20507;-75
2021/03/18 02:15:05;;;;;;;13.90;3.27;;;5.90;99.90;;;;;;5054205;28;20179;-75
2021/03/18 02:18:15;;;;;;;8.30;2.60;;;5.80;99.90;;;;;;5055357;28;20183;-75
2021/03/18 02:21:01;;;;;;;13.27;3.23;;;5.90;99.90;;;;;;4971015;28;20202;-74
2021/03/18 02:23:58;;;;;;;11.90;3.03;;;6.00;99.90;;;;;;5044751;28;20175;-75
2021/03/18 02:26:58;;;;;;;7.60;2.73;;;6.10;99.90;;;;;;5054874;28;20166;-75
2021/03/18 02:30:02;;;;;;;12.67;3.60;;;6.20;99.90;;;;;;5006441;28;20274;-75
2021/03/18 02:32:49;;;;;;;8.17;2.77;;;6.30;99.90;;;;;;5036907;28;20194;-75
2021/03/18 02:35:27;;;;;;;10.93;3.33;;;6.30;99.90;;;;;;5054903;28;20156;-75
2021/03/18 02:38:15;;;;;;;11.60;3.43;;;6.40;99.90;;;;;;5053473;28;20229;-74
2021/03/18 02:40:48;;;;;;;7.90;2.83;;;6.60;99.90;;;;;;5036121;28;20195;-75
2021/03/18 02:43:17;;;;;;;9.63;3.67;;;6.60;99.90;;;;;;5036762;28;20176;-75
2021/03/18 02:45:59;;;;;;;9.63;2.70;;;6.70;99.90;;;;;;5036461;28;20302;-75
2021/03/18 02:48:28;;;;;;;12.70;3.43;;;6.70;99.90;;;;;;5036482;28;20510;-75
2021/03/18 02:50:55;;;;;;;14.33;3.37;;;6.70;99.90;;;;;;5054581;28;20167;-75
2021/03/18 02:53:24;;;;;;;11.57;3.07;;;6.70;99.90;;;;;;5054788;28;20264;-75
2021/03/18 02:55:51;;;;;;;11.53;4.03;;;6.70;99.90;;;;;;5054423;28;20167;-75
2021/03/18 02:58:21;;;;;;;9.03;3.47;;;6.80;99.90;;;;;;5036420;28;20574;-75
2021/03/18 03:00:48;;;;;;;7.87;3.17;;;6.80;99.90;;;;;;5053324;28;20266;-75
2021/03/18 03:03:16;;;;;;;10.63;3.73;;;6.80;99.90;;;;;;5036402;28;20163;-75
2021/03/18 03:05:49;;;;;;;11.43;3.33;;;6.70;99.90;;;;;;5054039;28;20194;-74
2021/03/18 03:08:15;;;;;;;8.90;3.20;;;6.80;99.90;;;;;;5036073;28;20159;-75
2021/03/18 03:10:42;;;;;;;10.50;3.40;;;6.70;99.90;;;;;;5053652;28;20186;-75
2021/03/18 03:13:09;;;;;;;6.57;3.13;;;6.80;99.90;;;;;;5053994;28;20163;-75
2021/03/18 03:15:37;;;;;;;10.07;3.23;;;6.90;99.90;;;;;;5053304;28;20171;-75
2021/03/18 03:18:07;;;;;;;10.03;3.50;;;6.90;99.90;;;;;;5053983;28;20167;-76
2021/03/18 03:20:33;;;;;;;14.37;3.60;;;6.90;99.90;;;;;;5053568;28;20192;-75
2021/03/18 03:23:03;;;;;;;25.27;4.23;;;7.00;99.90;;;;;;5053911;28;20175;-75
2021/03/18 03:25:30;;;;;;;11.70;3.90;;;7.10;99.90;;;;;;5053705;28;20167;-75
2021/03/18 03:27:55;;;;;;;13.37;3.63;;;7.20;99.90;;;;;;5053623;28;20167;-75
2021/03/18 03:30:23;;;;;;;6.83;3.27;;;7.30;99.90;;;;;;5053534;28;20232;-75
2021/03/18 03:32:51;;;;;;;9.67;4.10;;;7.30;99.90;;;;;;5053581;28;20183;-75
2021/03/18 03:35:19;;;;;;;8.83;3.63;;;7.20;99.90;;;;;;5035810;28;20164;-75
2021/03/18 03:37:45;;;;;;;15.40;3.87;;;7.10;99.90;;;;;;5053488;28;20168;-75
2021/03/18 03:40:13;;;;;;;8.47;2.73;;;7.00;99.90;;;;;;5035699;28;20286;-75
2021/03/18 03:42:39;;;;;;;8.60;3.30;;;6.90;99.90;;;;;;5035581;28;20800;-76
2021/03/18 03:45:07;;;;;;;6.30;3.37;;;6.90;99.90;;;;;;5053412;28;20505;-75
2021/03/18 03:47:33;;;;;;;10.70;3.60;;;6.80;99.90;;;;;;5053050;28;20167;-74
2021/03/18 03:49:59;;;;;;;5.97;3.23;;;6.70;99.90;;;;;;5053004;28;20182;-75
2021/03/18 03:52:34;;;;;;;7.83;3.53;;;6.60;99.90;;;;;;5053413;28;20173;-75
2021/03/18 03:55:07;;;;;;;8.97;3.53;;;6.60;99.90;;;;;;5053577;28;20640;-75
2021/03/18 03:57:47;;;;;;;16.43;4.60;;;6.60;99.90;;;;;;5053353;28;20637;-75
2021/03/18 04:00:14;;;;;;;10.93;3.63;;;6.60;99.90;;;;;;5035165;28;20206;-75
2021/03/18 04:02:42;;;;;;;13.10;3.13;;;6.70;99.90;;;;;;5052974;28;20179;-75
2021/03/18 04:05:09;;;;;;;20.70;3.43;;;6.80;99.90;;;;;;5053174;28;20171;-75
2021/03/18 04:07:37;;;;;;;16.93;3.87;;;6.90;99.90;;;;;;5034855;28;20168;-74
2021/03/18 04:10:04;;;;;;;13.93;3.30;;;7.00;99.90;;;;;;5053371;28;20597;-75
2021/03/18 04:12:35;;;;;;;8.43;3.57;;;7.10;99.90;;;;;;5053028;28;20164;-75
2021/03/18 04:15:25;;;;;;;5.37;2.83;;;7.10;99.90;;;;;;5052969;28;20179;-75
2021/03/18 04:17:53;;;;;;;14.50;4.00;;;7.10;99.90;;;;;;5053248;28;20699;-75
2021/03/18 04:20:22;;;;;;;8.43;3.63;;;7.10;99.90;;;;;;5035379;28;20198;-75
2021/03/18 04:22:53;;;;;;;16.33;3.67;;;7.10;99.90;;;;;;5053075;28;20233;-74
2021/03/18 04:25:24;;;;;;;13.00;4.67;;;7.20;99.90;;;;;;5053285;28;20175;-75
2021/03/18 04:27:51;;;;;;;11.90;3.87;;;7.30;99.90;;;;;;5056972;28;20172;-74
2021/03/18 04:30:19;;;;;;;9.67;4.50;;;7.40;99.90;;;;;;5038928;28;20163;-76
2021/03/18 04:32:47;;;;;;;14.57;4.57;;;7.40;99.90;;;;;;5056409;28;20187;-75
2021/03/18 04:35:15;;;;;;;15.83;4.33;;;7.50;99.90;;;;;;5057092;28;20167;-75
2021/03/18 04:37:42;;;;;;;15.07;4.87;;;7.50;99.90;;;;;;5056964;28;20171;-76
2021/03/18 04:40:10;;;;;;;13.03;4.83;;;7.50;99.90;;;;;;5022611;28;20206;-75
2021/03/18 04:42:37;;;;;;;8.40;4.50;;;7.50;99.90;;;;;;5056572;28;20166;-75
2021/03/18 04:45:05;;;;;;;13.47;4.23;;;7.40;99.90;;;;;;5056251;28;20170;-75
2021/03/18 04:47:32;;;;;;;14.37;4.93;;;7.40;99.90;;;;;;5038608;28;20163;-75
2021/03/18 04:49:59;;;;;;;7.40;4.93;;;7.40;99.90;;;;;;5056922;28;20164;-75
2021/03/18 04:52:24;;;;;;;9.07;4.17;;;7.50;99.90;;;;;;5056807;28;20508;-75
2021/03/18 04:54:50;;;;;;;11.33;4.20;;;7.50;99.90;;;;;;5056685;28;20167;-75
2021/03/18 04:57:21;;;;;;;19.20;4.80;;;7.50;99.90;;;;;;5038723;28;20593;-74
2021/03/18 04:59:49;;;;;;;12.83;4.33;;;7.50;99.90;;;;;;5038316;28;20203;-75
2021/03/18 05:02:17;;;;;;;14.60;5.30;;;7.50;99.90;;;;;;5038700;28;20167;-74
2021/03/18 05:04:43;;;;;;;12.07;4.23;;;7.50;99.90;;;;;;5056521;28;20160;-76
2021/03/18 05:07:11;;;;;;;15.97;4.67;;;7.60;99.90;;;;;;5056499;28;20163;-75
2021/03/18 05:09:39;;;;;;;5.60;4.00;;;7.60;99.90;;;;;;5038040;28;20174;-75
2021/03/18 05:12:07;;;;;;;7.53;4.13;;;7.50;99.90;;;;;;5038099;28;20607;-75
2021/03/18 05:14:34;;;;;;;16.30;4.20;;;7.40;99.90;;;;;;5056205;28;20168;-75
2021/03/18 05:17:00;;;;;;;9.13;3.53;;;7.30;99.90;;;;;;5056173;28;20513;-75
2021/03/18 05:19:26;;;;;;;7.93;3.63;;;7.30;99.90;;;;;;5056187;28;20167;-75
2021/03/18 05:21:53;;;;;;;8.40;4.43;;;7.30;99.90;;;;;;5056072;28;20494;-75
2021/03/18 05:24:19;;;;;;;8.77;3.90;;;7.30;99.90;;;;;;5038505;28;20630;-76
2021/03/18 05:26:45;;;;;;;5.33;3.43;;;7.30;99.90;;;;;;5037570;28;20251;-75
2021/03/18 05:29:13;;;;;;;8.83;4.20;;;7.30;99.90;;;;;;5055886;28;20184;-75
2021/03/18 05:31:39;;;;;;;12.47;4.27;;;7.30;99.90;;;;;;5055913;28;20170;-75
2021/03/18 05:34:05;;;;;;;9.43;5.10;;;7.20;99.90;;;;;;5056328;28;20159;-75
2021/03/18 05:36:31;;;;;;;15.83;4.80;;;7.10;99.90;;;;;;5038222;28;20171;-76
2021/03/18 05:38:57;;;;;;;9.47;4.37;;;7.10;99.90;;;;;;5037723;28;20183;-75
2021/03/18 05:41:23;;;;;;;8.17;5.03;;;7.10;99.90;;;;;;5055483;28;20195;-75
2021/03/18 05:43:49;;;;;;;10.57;4.60;;;7.10;99.90;;;;;;5055679;28;20175;-75
2021/03/18 05:46:16;;;;;;;11.13;4.33;;;7.00;99.90;;;;;;5037492;28;20167;-75
2021/03/18 05:48:46;;;;;;;5.80;4.00;;;6.90;99.90;;;;;;5037603;28;20241;-75
2021/03/18 05:51:19;;;;;;;6.40;4.10;;;6.80;99.90;;;;;;5055662;28;20175;-75
2021/03/18 05:53:46;;;;;;;7.87;4.63;;;6.80;99.90;;;;;;5037576;28;20216;-75
2021/03/18 05:56:20;;;;;;;8.20;4.83;;;6.90;99.90;;;;;;5037783;28;20182;-75
2021/03/18 05:58:48;;;;;;;19.50;6.80;;;7.00;99.90;;;;;;5055577;28;20528;-75
2021/03/18 06:01:15;;;;;;;19.87;7.10;;;7.10;99.90;;;;;;5037623;28;20655;-75
2021/03/18 06:03:40;;;;;;;14.87;7.37;;;7.20;99.90;;;;;;5055392;28;20197;-74
2021/03/18 06:06:08;;;;;;;13.33;7.67;;;7.30;99.90;;;;;;5037384;28;20168;-75
2021/03/18 06:08:35;;;;;;;52.43;25.00;;;7.30;99.90;;;;;;5054756;28;20551;-77
2021/03/18 06:11:02;;;;;;;22.60;10.97;;;7.40;99.90;;;;;;5055378;28;20179;-75
2021/03/18 06:13:28;;;;;;;14.27;8.07;;;7.50;99.90;;;;;;5055291;28;20164;-75
2021/03/18 06:15:55;;;;;;;14.20;7.47;;;7.60;99.90;;;;;;5037394;28;20254;-75
2021/03/18 06:18:21;;;;;;;14.73;7.27;;;7.60;99.90;;;;;;5036640;28;20171;-76
2021/03/18 06:20:52;;;;;;;8.00;5.23;;;7.60;99.90;;;;;;5036942;28;20204;-75
2021/03/18 06:23:18;;;;;;;10.83;4.53;;;7.50;99.90;;;;;;5054801;28;20175;-75
2021/03/18 06:25:45;;;;;;;14.17;5.03;;;7.40;99.90;;;;;;5037180;28;20262;-77
2021/03/18 06:28:13;;;;;;;8.73;5.13;;;7.30;99.90;;;;;;5040456;28;20175;-75
2021/03/18 06:30:41;;;;;;;12.40;5.20;;;7.20;99.90;;;;;;5054859;28;20167;-75
2021/03/18 06:33:21;;;;;;;8.77;6.27;;;7.40;99.90;;;;;;5054636;28;20183;-75
2021/03/18 06:35:46;;;;;;;14.20;6.77;;;7.50;99.90;;;;;;5053677;28;20616;-75
2021/03/18 06:38:12;;;;;;;8.53;5.77;;;7.60;99.90;;;;;;5054475;28;20174;-75
2021/03/18 06:40:46;;;;;;;7.93;5.43;;;7.70;99.90;;;;;;5036608;28;20593;-75
2021/03/18 06:43:12;;;;;;;14.10;6.03;;;7.70;99.90;;;;;;5036536;28;20183;-75
2021/03/18 06:45:46;;;;;;;23.87;6.83;;;7.80;99.90;;;;;;5054554;28;20176;-75
2021/03/18 06:48:15;;;;;;;14.67;6.67;;;7.90;99.90;;;;;;5003396;28;20175;-75
2021/03/18 06:50:48;;;;;;;10.90;7.00;;;7.90;99.90;;;;;;5036306;28;20678;-75
2021/03/18 06:53:19;;;;;;;13.13;7.30;;;7.90;99.90;;;;;;5054352;28;20155;-75
2021/03/18 06:55:45;;;;;;;16.83;7.50;;;7.90;99.90;;;;;;5036458;28;20167;-75
2021/03/18 06:58:20;;;;;;;19.57;7.93;;;7.90;99.90;;;;;;5054246;28;20595;-75
2021/03/18 07:00:55;;;;;;;13.70;8.80;;;8.00;99.90;;;;;;5036451;28;20199;-76
2021/03/18 07:03:29;;;;;;;27.60;10.00;;;8.10;99.90;;;;;;5036502;28;20162;-75
2021/03/18 07:05:56;;;;;;;16.63;8.90;;;8.10;99.90;;;;;;5036081;28;20216;-75
2021/03/18 07:08:25;;;;;;;14.10;9.47;;;8.30;99.90;;;;;;5036010;28;20176;-75
2021/03/18 07:10:51;;;;;;;22.47;9.00;;;8.30;99.90;;;;;;5053719;28;20626;-75
2021/03/18 07:13:26;;;;;;;21.10;8.70;;;8.40;99.90;;;;;;5036079;28;20171;-75
2021/03/18 07:15:54;;;;;;;19.23;8.00;;;8.50;99.90;;;;;;5035920;28;20189;-75
2021/03/18 07:18:22;;;;;;;17.47;8.00;;;8.50;99.90;;;;;;5036000;28;20166;-75
2021/03/18 07:21:03;;;;;;;14.43;7.67;;;8.50;99.90;;;;;;5053738;28;20207;-75
2021/03/18 07:23:50;;;;;;;16.47;7.30;;;8.40;99.90;;;;;;5035979;28;20186;-74
2021/03/18 07:26:24;;;;;;;16.00;7.83;;;8.50;99.90;;;;;;5053810;28;20532;-75
2021/03/18 07:29:14;;;;;;;17.83;7.47;;;8.50;99.90;;;;;;5035914;28;20163;-75
2021/03/18 07:31:41;;;;;;;12.17;6.83;;;8.50;99.90;;;;;;5035553;28;20281;-75
2021/03/18 07:34:07;;;;;;;14.63;6.50;;;8.60;99.90;;;;;;5053794;28;20182;-75
2021/03/18 07:36:33;;;;;;;12.20;6.60;;;8.60;99.90;;;;;;5035730;28;20472;-74
2021/03/18 07:38:58;;;;;;;17.77;8.13;;;8.70;99.90;;;;;;5035316;28;20170;-74
2021/03/18 07:41:24;;;;;;;15.23;6.37;;;8.80;99.90;;;;;;5035186;28;20218;-76
2021/03/18 07:43:50;;;;;;;11.00;5.40;;;8.90;99.90;;;;;;5053047;28;20178;-75
2021/03/18 07:46:22;;;;;;;16.38;6.10;;;8.90;99.90;;;;;;5035429;28;20693;-75
2021/03/18 07:48:52;;;;;;;12.77;6.40;;;9.00;99.90;;;;;;5053364;28;20175;-76
2021/03/18 07:51:19;;;;;;;16.73;6.65;;;9.00;99.90;;;;;;5035806;28;20179;-75
2021/03/18 07:53:51;;;;;;;13.90;6.50;;;8.90;99.90;;;;;;5035644;28;20163;-75
2021/03/18 07:56:17;;;;;;;13.03;5.60;;;8.80;99.90;;;;;;5035673;28;20199;-75
2021/03/18 07:58:48;;;;;;;14.90;6.47;;;8.70;99.90;;;;;;5053548;28;20183;-75
2021/03/18 08:01:32;;;;;;;20.17;6.00;;;8.80;99.90;;;;;;5034637;28;20207;-75
2021/03/18 08:04:00;;;;;;;16.07;6.47;;;8.70;99.90;;;;;;5053363;28;20222;-74
2021/03/18 08:06:44;;;;;;;17.80;7.07;;;8.90;99.90;;;;;;5051796;28;20403;-75
2021/03/18 08:09:12;;;;;;;12.90;7.00;;;8.80;99.90;;;;;;5051898;28;20404;-75
2021/03/18 08:11:42;;;;;;;12.93;6.43;;;8.80;99.90;;;;;;5053140;28;20186;-75
2021/03/18 08:14:13;;;;;;;15.20;6.17;;;8.90;99.90;;;;;;5034968;28;20171;-75
2021/03/18 08:16:40;;;;;;;17.20;6.30;;;8.90;99.90;;;;;;5035199;28;20526;-75
2021/03/18 08:19:16;;;;;;;9.40;5.57;;;8.90;99.90;;;;;;5053080;28;20160;-75
2021/03/18 08:21:44;;;;;;;19.40;6.53;;;8.90;99.90;;;;;;5035062;28;20297;-75
2021/03/18 08:24:15;;;;;;;10.77;5.60;;;9.00;99.90;;;;;;5053098;28;20229;-75
2021/03/18 08:26:48;;;;;;;15.43;5.97;;;9.20;99.90;;;;;;5053161;28;20172;-74
2021/03/18 08:29:30;;;;;;;12.83;5.70;;;9.10;99.90;;;;;;5035318;28;20163;-76
2021/03/18 08:31:59;;;;;;;12.23;6.23;;;9.20;99.90;;;;;;5034830;28;20179;-75
2021/03/18 08:34:50;;;;;;;10.63;6.47;;;9.30;99.90;;;;;;5052813;28;20242;-76
2021/03/18 08:37:39;;;;;;;14.67;6.80;;;9.30;99.90;;;;;;5034901;28;20622;-74
2021/03/18 08:40:08;;;;;;;18.33;6.33;;;9.40;99.90;;;;;;5052828;28;20525;-75
2021/03/18 08:42:38;;;;;;;13.50;5.63;;;9.40;99.90;;;;;;5052520;28;20160;-75
2021/03/18 08:45:11;;;;;;;10.70;6.20;;;9.60;99.90;;;;;;5052746;28;20213;-76
2021/03/18 08:48:06;;;;;;;9.98;6.20;;;9.80;99.90;;;;;;5034376;28;20222;-75
2021/03/18 08:50:31;;;;;;;16.90;5.93;;;9.80;99.90;;;;;;5025820;28;20179;-75
2021/03/18 08:52:59;;;;;;;14.83;5.90;;;9.80;99.90;;;;;;5033090;28;20175;-76
2021/03/18 08:55:43;;;;;;;10.07;5.43;;;10.00;99.90;;;;;;5030232;28;20176;-75
2021/03/18 08:58:09;;;;;;;11.73;5.53;;;10.00;99.90;;;;;;5037709;28;20170;-75
2021/03/18 09:00:36;;;;;;;9.60;5.88;;;10.00;99.90;;;;;;5052247;28;20643;-75
2021/03/18 09:03:04;;;;;;;14.00;5.57;;;10.20;99.90;;;;;;5052384;28;20587;-75
2021/03/18 09:05:30;;;;;;;12.65;5.53;;;10.30;99.90;;;;;;5034460;28;20611;-74
2021/03/18 09:08:01;;;;;;;15.88;5.70;;;10.30;99.90;;;;;;5034747;28;20159;-75
2021/03/18 09:10:32;;;;;;;14.20;5.35;;;10.30;99.90;;;;;;5034823;28;20171;-76
2021/03/18 09:13:04;;;;;;;17.75;5.53;;;10.30;99.90;;;;;;5045996;28;20168;-75
2021/03/18 09:15:37;;;;;;;19.67;5.38;;;10.40;99.90;;;;;;5034997;28;20198;-75
2021/03/18 09:18:17;;;;;;;12.43;5.13;;;10.40;99.90;;;;;;5051010;28;20168;-76
2021/03/18 09:21:05;;;;;;;14.02;5.38;;;10.60;99.90;;;;;;5038272;28;20553;-75
2021/03/18 09:23:33;;;;;;;16.23;5.93;;;10.60;99.90;;;;;;5055047;28;20531;-75
2021/03/18 09:26:02;;;;;;;9.90;5.05;;;10.60;99.90;;;;;;5055944;28;20152;-75
2021/03/18 09:28:39;;;;;;;11.48;5.93;;;10.70;99.90;;;;;;5037902;28;20246;-76
2021/03/18 09:31:05;;;;;;;15.63;5.50;;;10.60;99.90;;;;;;5038538;28;20183;-76
2021/03/18 09:33:37;;;;;;;14.50;5.97;;;10.60;99.90;;;;;;5033785;28;20186;-75
2021/03/18 09:36:18;;;;;;;15.88;5.63;;;10.70;99.90;;;;;;5038515;28;20262;-76
2021/03/18 09:39:10;;;;;;;10.43;6.00;;;10.80;99.90;;;;;;5054128;28;20171;-76
2021/03/18 09:41:39;;;;;;;20.45;6.85;;;10.70;99.90;;;;;;5043912;28;20210;-75
2021/03/18 09:44:06;;;;;;;19.27;6.97;;;10.50;99.90;;;;;;5055199;28;20627;-75
2021/03/18 09:46:32;;;;;;;22.42;8.10;;;10.40;99.90;;;;;;5055307;28;20509;-75
2021/03/18 09:48:58;;;;;;;18.13;6.93;;;10.50;99.90;;;;;;5055548;28;20169;-75
2021/03/18 09:51:24;;;;;;;20.52;7.28;;;10.70;99.90;;;;;;5054870;28;20258;-75
2021/03/18 09:54:02;;;;;;;17.42;7.90;;;11.00;99.90;;;;;;5034811;28;20166;-75
2021/03/18 09:56:34;;;;;;;20.10;8.00;;;11.40;99.90;;;;;;5075608;28;20275;-75
2021/03/18 09:59:04;;;;;;;24.27;7.63;;;11.90;99.90;;;;;;5075841;28;20184;-75
2021/03/18 10:01:30;;;;;;;18.55;7.55;;;12.30;99.90;;;;;;5057565;28;20676;-75
2021/03/18 10:04:04;;;;;;;18.50;7.65;;;12.60;99.90;;;;;;5056752;28;20167;-75
2021/03/18 10:06:32;;;;;;;16.45;6.25;;;12.70;99.90;;;;;;5055171;28;20164;-76
2021/03/18 10:09:36;;;;;;;20.05;7.72;;;12.40;99.90;;;;;;5055241;28;20168;-75
2021/03/18 10:12:21;;;;;;;29.63;7.88;;;12.00;99.90;;;;;;5037342;28;20169;-75
2021/03/18 10:15:03;;;;;;;22.80;7.63;;;11.60;99.90;;;;;;5055261;28;20167;-75
2021/03/18 10:17:35;;;;;;;29.92;8.65;;;11.90;99.90;;;;;;5055128;28;20246;-75
2021/03/18 10:20:13;;;;;;;37.63;9.50;;;12.20;99.90;;;;;;5054980;28;20326;-75
2021/03/18 10:22:42;;;;;;;26.52;8.95;;;12.30;99.90;;;;;;5054587;28;20249;-75
2021/03/18 10:25:12;;;;;;;34.10;9.18;;;12.30;99.90;;;;;;5054005;28;20167;-75
2021/03/18 10:27:43;;;;;;;17.55;7.25;;;12.30;99.90;;;;;;5054362;28;20213;-75
2021/03/18 10:30:12;;;;;;;30.98;9.48;;;12.20;99.90;;;;;;5037252;28;20623;-75
2021/03/18 10:32:39;;;;;;;26.13;9.93;;;12.00;99.90;;;;;;5035698;28;20183;-75
2021/03/18 10:35:06;;;;;;;22.88;8.35;;;11.80;99.90;;;;;;5036271;28;20252;-75
2021/03/18 10:37:39;;;;;;;24.25;9.02;;;11.70;99.90;;;;;;5054446;28;20160;-75
2021/03/18 10:40:14;;;;;;;28.50;9.02;;;11.70;99.90;;;;;;5054495;28;20280;-75
2021/03/18 10:42:40;;;;;;;26.17;9.55;;;11.60;99.90;;;;;;5036675;28;20640;-76
2021/03/18 10:45:18;;;;;;;29.73;10.30;;;11.50;99.90;;;;;;5046079;28;20622;-76
2021/03/18 10:47:45;;;;;;;30.23;10.80;;;11.50;99.90;;;;;;5036725;28;20179;-77
2021/03/18 10:50:12;;;;;;;29.67;10.20;;;11.60;99.90;;;;;;5040529;28;20189;-75
2021/03/18 10:52:39;;;;;;;28.27;10.27;;;11.70;99.90;;;;;;5073847;28;20167;-75
2021/03/18 10:55:07;;;;;;;23.45;10.88;;;11.80;99.90;;;;;;5057776;28;20179;-75
2021/03/18 10:57:34;;;;;;;31.52;11.10;;;11.70;99.90;;;;;;5036101;28;20562;-76
2021/03/18 11:00:04;;;;;;;30.70;11.20;;;11.70;99.90;;;;;;5053192;28;20256;-75
2021/03/18 11:02:30;;;;;;;42.80;11.65;;;11.60;99.90;;;;;;5036045;28;20179;-75
2021/03/18 11:04:59;;;;;;;33.70;11.98;;;11.30;99.90;;;;;;5035737;28;20607;-76
2021/03/18 11:07:25;;;;;;;43.50;12.43;;;11.30;99.90;;;;;;5053720;28;20168;-76
2021/03/18 11:10:15;;;;;;;49.28;11.15;;;11.40;99.90;;;;;;5053848;28;20175;-75
2021/03/18 11:12:41;;;;;;;27.27;8.63;;;11.50;99.90;;;;;;5053632;28;20214;-75
2021/03/18 11:15:09;;;;;;;27.55;8.80;;;11.70;99.90;;;;;;5052999;28;20167;-75
2021/03/18 11:17:36;;;;;;;26.55;8.45;;;11.70;99.90;;;;;;5035692;28;20259;-76
2021/03/18 11:20:16;;;;;;;32.55;9.05;;;11.90;99.90;;;;;;5053552;28;20207;-75
2021/03/18 11:22:42;;;;;;;17.83;6.50;;;11.90;99.90;;;;;;5053280;28;20175;-77
2021/03/18 11:25:09;;;;;;;34.22;8.13;;;11.90;99.90;;;;;;5034665;28;20210;-76
2021/03/18 11:27:36;;;;;;;37.58;8.68;;;11.50;99.90;;;;;;5053486;28;20170;-75
2021/03/18 11:30:05;;;;;;;29.80;7.65;;;11.50;99.90;;;;;;5035081;28;20183;-75
2021/03/18 11:32:30;;;;;;;30.45;7.57;;;11.40;99.90;;;;;;5052994;28;20187;-76
2021/03/18 11:34:59;;;;;;;28.88;8.63;;;11.20;99.90;;;;;;5018921;28;20650;-74
2021/03/18 11:37:27;;;;;;;34.88;7.50;;;11.20;99.90;;;;;;5052627;28;20172;-76
2021/03/18 11:39:53;;;;;;;42.28;7.78;;;11.20;99.90;;;;;;5052689;28;20679;-75
2021/03/18 11:42:19;;;;;;;20.77;7.05;;;11.40;99.90;;;;;;5052842;28;20175;-76
2021/03/18 11:44:45;;;;;;;22.48;7.15;;;11.60;99.90;;;;;;5051911;28;20551;-75
2021/03/18 11:47:13;;;;;;;22.65;7.10;;;11.60;99.90;;;;;;5053035;28;20262;-75
2021/03/18 11:49:41;;;;;;;32.33;7.32;;;11.80;99.90;;;;;;5035077;28;20174;-78
2021/03/18 11:52:08;;;;;;;26.58;7.70;;;11.80;99.90;;;;;;5034027;28;20245;-80
2021/03/18 11:54:35;;;;;;;33.70;9.13;;;11.70;99.90;;;;;;5035442;28;20182;-78
2021/03/18 11:57:01;;;;;;;35.58;9.70;;;11.50;99.90;;;;;;5053202;28;20172;-80
2021/03/18 11:59:27;;;;;;;26.73;8.07;;;11.50;99.90;;;;;;5034593;28;20168;-78
2021/03/18 12:01:53;;;;;;;23.63;7.05;;;11.50;99.90;;;;;;5014051;28;20234;-76
2021/03/18 12:04:19;;;;;;;30.65;8.43;;;11.70;99.90;;;;;;5015289;28;20199;-76
2021/03/18 12:06:45;;;;;;;23.33;8.10;;;11.80;99.90;;;;;;5032437;28;20192;-75
2021/03/18 12:09:11;;;;;;;26.60;8.25;;;11.90;99.90;;;;;;5015481;28;20164;-79
2021/03/18 12:11:37;;;;;;;24.33;7.70;;;12.00;99.90;;;;;;5034537;28;20164;-75
2021/03/18 12:14:03;;;;;;;26.00;8.13;;;12.10;99.90;;;;;;5017979;28;20186;-76
2021/03/18 12:16:29;;;;;;;22.17;7.22;;;12.20;99.90;;;;;;5034200;28;20164;-74
2021/03/18 12:18:55;;;;;;;25.75;7.85;;;12.20;99.90;;;;;;5034689;28;20218;-75
2021/03/18 12:21:21;;;;;;;26.30;8.27;;;12.10;99.90;;;;;;5034069;28;20580;-75
2021/03/18 12:23:47;;;;;;;23.85;7.35;;;12.00;99.90;;;;;;5052271;28;20543;-78
2021/03/18 12:26:13;;;;;;;26.52;7.78;;;12.10;99.90;;;;;;5052113;28;20179;-76
2021/03/18 12:28:38;;;;;;;18.73;6.82;;;12.10;99.90;;;;;;5051941;28;20254;-75
2021/03/18 12:31:04;;;;;;;26.75;7.88;;;12.20;99.90;;;;;;5034764;28;20182;-75
2021/03/18 12:33:30;;;;;;;21.50;7.20;;;12.00;99.90;;;;;;5052679;28;20262;-75
2021/03/18 12:35:56;;;;;;;18.65;7.45;;;11.60;99.90;;;;;;5034241;28;20317;-75
2021/03/18 12:38:22;;;;;;;25.40;7.80;;;11.50;99.90;;;;;;5052978;28;20171;-75
2021/03/18 12:40:53;;;;;;;16.35;6.85;;;11.50;99.90;;;;;;5034439;28;20704;-76
2021/03/18 12:43:22;;;;;;;23.77;7.30;;;11.40;99.90;;;;;;5052801;28;20160;-75
2021/03/18 12:45:48;;;;;;;29.75;7.72;;;11.50;99.90;;;;;;5052075;28;20175;-75
2021/03/18 12:48:14;;;;;;;23.25;7.53;;;11.40;99.90;;;;;;5050304;28;20214;-75
2021/03/18 12:50:41;;;;;;;20.67;7.10;;;11.40;99.90;;;;;;5022874;28;20512;-75
2021/03/18 12:53:07;;;;;;;22.58;7.32;;;11.40;99.90;;;;;;5038291;28;20195;-76
2021/03/18 12:55:32;;;;;;;21.42;6.65;;;11.40;99.90;;;;;;5055688;28;20258;-75
2021/03/18 12:57:58;;;;;;;22.42;6.90;;;11.40;99.90;;;;;;5038670;28;20601;-74
2021/03/18 13:00:27;;;;;;;20.38;7.75;;;11.40;99.90;;;;;;5056158;28;20207;-75